Bandera, Texas
Current Conditions -  °F | °C
As of 12:35 PM on Saturday 25 Oct 2014 (Local Time) from KERV Reporting Station
Clear Clear  
Wind Chill: 80°   Ceiling: Unl
Heat Index: 81°   Visibility: 10mi
Dew Point: 60°   Wind: 6mph
Humidity: 50%   Direction: 210°SSW
Pressure: 30.2"   Gusts: NA
Location:  29.73°N, 99.07°W
Report Text: KERV 251735Z AUTO 21005KT 10SM CLR 27/16 A3020 RMK AO2 T02680156
Loading
Personal Weather Stations






























Interactive Weather Map
Tropical Storm Tracking
New forecast layout! Learn more

10-Day Weather Forecast

Advertisements
Track Severe Weather on mobile